Ipswich, United Kingdom
Current Conditions -  °F | °C
As of 5:50 AM on Wednesday 22 Oct 2014 (Local Time) from EGUW Reporting Station
Clear Clear  
Wind Chill: 35°   Ceiling: Unl
Heat Index: 43°   Visibility: 6mi
Dew Point: 37°   Wind: 16mph
Humidity: 81%   Direction: 280°W
Pressure: 30.12"   Gusts: NA
Location:  52.06°N, 1.16°E
Report Text: EGUW 220450Z 28014KT CAVOK 06/03 Q1020 BLU
Loading
Personal Weather Stations






























Interactive Weather Map
Tropical Storm Tracking
New forecast layout! Learn more

10-Day Weather Forecast

Advertisements
Track Severe Weather on mobile